createdAt,value
2023-01-19T00:05:04.372Z,0.39
2023-01-19T00:07:32.017Z,0.43
2023-01-19T00:09:59.945Z,0.29
2023-01-19T00:12:27.571Z,0.53
2023-01-19T00:18:03.028Z,0.64
2023-01-19T00:23:34.248Z,0.69
2023-01-19T00:26:01.677Z,0.83
2023-01-19T00:28:29.652Z,0.64
2023-01-19T00:30:57.172Z,0.65
2023-01-19T00:36:22.905Z,0.69
2023-01-19T00:38:51.747Z,0.60
2023-01-19T00:41:39.492Z,0.50
2023-01-19T00:44:06.069Z,0.49
2023-01-19T00:49:21.910Z,0.37
2023-01-19T00:51:49.371Z,0.43
2023-01-19T00:54:18.327Z,0.45
2023-01-19T00:56:45.745Z,0.31
2023-01-19T01:02:02.100Z,0.40
2023-01-19T01:04:29.876Z,0.45
2023-01-19T01:06:57.345Z,0.53
2023-01-19T01:09:26.193Z,0.61
2023-01-19T01:14:47.385Z,0.50
2023-01-19T01:17:14.931Z,0.34
2023-01-19T01:19:42.557Z,0.37
2023-01-19T01:22:10.660Z,0.28
2023-01-19T01:27:30.764Z,0.36
2023-01-19T01:32:55.878Z,0.26
2023-01-19T01:35:23.318Z,0.24
2023-01-19T01:37:50.739Z,0.36
2023-01-19T01:40:19.683Z,0.32
2023-01-19T01:45:48.508Z,0.29
2023-01-19T01:48:18.663Z,0.49
2023-01-19T01:53:20.978Z,0.61
2023-01-19T01:58:47.091Z,0.88
2023-01-19T02:01:33.740Z,0.87
2023-01-19T02:04:01.322Z,0.89
2023-01-19T02:06:29.208Z,0.97
2023-01-19T02:12:08.122Z,0.75
2023-01-19T02:17:39.229Z,0.90
2023-01-19T02:20:10.522Z,1.06
2023-01-19T02:22:43.464Z,0.98
2023-01-19T02:25:12.312Z,1.26
2023-01-19T02:30:28.580Z,1.03
2023-01-19T02:32:56.061Z,1.14
2023-01-19T02:35:24.329Z,1.24
2023-01-19T02:37:52.155Z,1.15
2023-01-19T02:43:20.179Z,1.46
2023-01-19T02:45:48.304Z,1.35
2023-01-19T02:48:17.847Z,1.62
2023-01-19T02:50:49.332Z,1.38
2023-01-19T02:56:13.841Z,1.41
2023-01-19T03:01:49.421Z,1.49
2023-01-19T03:04:23.655Z,1.44
2023-01-19T03:09:41.270Z,1.62
2023-01-19T03:15:16.954Z,1.58
2023-01-19T03:20:54.069Z,1.65
2023-01-19T03:23:23.410Z,1.58
2023-01-19T03:25:53.515Z,1.71
2023-01-19T03:28:22.415Z,1.61
2023-01-19T03:33:50.259Z,1.61
2023-01-19T03:36:21.617Z,1.56
2023-01-19T03:38:50.751Z,1.73
2023-01-19T03:41:20.746Z,1.80
2023-01-19T03:46:37.360Z,1.96
2023-01-19T03:49:05.078Z,1.64
2023-01-19T03:51:36.818Z,1.83
2023-01-19T03:54:05.379Z,1.83
2023-01-19T03:59:22.652Z,1.98
2023-01-19T04:01:50.463Z,1.94
2023-01-19T04:04:17.945Z,1.67
2023-01-19T04:06:47.260Z,1.92
2023-01-19T04:12:04.917Z,1.70
2023-01-19T04:14:33.811Z,1.80
2023-01-19T04:17:01.242Z,1.80
2023-01-19T04:19:28.711Z,1.68
2023-01-19T04:24:47.462Z,1.98
2023-01-19T04:27:16.282Z,1.90
2023-01-19T04:29:45.163Z,1.84
2023-01-19T04:32:14.215Z,1.84
2023-01-19T04:37:37.216Z,1.88
2023-01-19T04:40:05.264Z,1.77
2023-01-19T04:42:32.708Z,1.85
2023-01-19T04:45:01.586Z,1.92
2023-01-19T04:50:36.065Z,1.90
2023-01-19T04:56:06.649Z,2.04
2023-01-19T04:58:34.137Z,2.03
2023-01-19T05:01:02.020Z,2.06
2023-01-19T05:03:30.809Z,1.96
2023-01-19T05:08:47.242Z,1.87
2023-01-19T05:11:14.697Z,1.95
2023-01-19T05:13:43.919Z,2.03
2023-01-19T05:16:11.939Z,1.95
2023-01-19T05:21:39.924Z,1.87
2023-01-19T05:24:08.372Z,1.86
2023-01-19T05:26:35.827Z,1.93
2023-01-19T05:29:03.533Z,2.18
2023-01-19T05:34:19.528Z,1.90
2023-01-19T05:36:48.737Z,2.07
2023-01-19T05:39:16.517Z,2.07
2023-01-19T05:41:45.318Z,2.09
2023-01-19T05:47:11.332Z,2.16
2023-01-19T05:49:38.789Z,1.97
2023-01-19T05:52:07.590Z,2.29
2023-01-19T05:54:35.239Z,2.23
2023-01-19T05:59:51.290Z,2.24
2023-01-19T06:02:18.723Z,2.09
2023-01-19T06:04:46.260Z,1.93
2023-01-19T06:07:15.042Z,2.08
2023-01-19T06:12:32.409Z,2.10
2023-01-19T06:15:00.109Z,2.22
2023-01-19T06:17:27.545Z,1.86
2023-01-19T06:19:55.176Z,2.04
2023-01-19T06:25:12.937Z,1.77
2023-01-19T06:27:44.434Z,1.87
2023-01-19T06:30:13.223Z,1.87
2023-01-19T06:32:40.665Z,1.93
2023-01-19T06:37:56.260Z,1.53
2023-01-19T06:40:25.025Z,1.50
2023-01-19T06:42:52.927Z,1.50
2023-01-19T06:45:20.372Z,1.43
2023-01-19T06:50:36.249Z,1.65
2023-01-19T06:53:03.669Z,1.53
2023-01-19T06:55:32.440Z,1.27
2023-01-19T06:58:00.470Z,1.52
2023-01-19T07:03:24.402Z,1.27
2023-01-19T07:05:52.783Z,1.10
2023-01-19T07:08:20.273Z,1.22
2023-01-19T07:11:23.012Z,1.24
2023-01-19T07:13:39.850Z,1.01
2023-01-19T07:16:08.668Z,0.92
2023-01-19T07:21:32.232Z,0.98
2023-01-19T07:23:59.696Z,1.10
2023-01-19T07:26:28.502Z,0.88
2023-01-19T07:28:55.993Z,1.18
2023-01-19T07:34:13.263Z,0.89
2023-01-19T07:36:40.957Z,0.92
2023-01-19T07:39:08.542Z,0.80
2023-01-19T07:41:37.281Z,0.94
2023-01-19T07:46:56.308Z,0.97
2023-01-19T07:49:23.727Z,0.96
2023-01-19T07:51:51.153Z,0.80
2023-01-19T07:54:18.605Z,1.01
2023-01-19T07:59:49.576Z,0.91
2023-01-19T08:02:17.448Z,1.00
2023-01-19T08:04:44.972Z,0.83
2023-01-19T08:07:13.126Z,0.99
2023-01-19T08:12:43.209Z,0.84
2023-01-19T08:15:12.453Z,1.12
2023-01-19T08:17:39.918Z,1.11
2023-01-19T08:20:09.470Z,1.10
2023-01-19T08:25:37.193Z,0.89
2023-01-19T08:28:06.282Z,0.93
2023-01-19T08:30:35.465Z,0.98
2023-01-19T08:33:05.078Z,0.95
2023-01-19T08:38:29.280Z,1.09
2023-01-19T08:40:56.706Z,0.91
2023-01-19T08:43:24.798Z,1.01
2023-01-19T08:45:55.807Z,0.95
2023-01-19T08:51:31.013Z,1.21
2023-01-19T08:57:01.194Z,1.13
2023-01-19T08:59:28.805Z,1.08
2023-01-19T09:01:57.706Z,1.27
2023-01-19T09:04:25.532Z,1.25
2023-01-19T09:09:51.186Z,1.17
2023-01-19T09:12:18.614Z,1.13
2023-01-19T09:14:46.045Z,1.22
2023-01-19T09:17:15.418Z,1.41
2023-01-19T09:22:41.229Z,1.38
2023-01-19T09:25:09.609Z,1.38
2023-01-19T09:27:37.034Z,1.39
2023-01-19T09:30:05.154Z,1.51
2023-01-19T09:35:22.566Z,1.50
2023-01-19T09:37:50.031Z,1.48
2023-01-19T09:40:19.797Z,1.42
2023-01-19T09:42:51.634Z,1.47
2023-01-19T09:48:22.147Z,1.67
2023-01-19T09:53:57.682Z,1.59
2023-01-19T09:56:25.609Z,1.55
2023-01-19T09:58:53.445Z,1.56
2023-01-19T10:01:46.292Z,1.58
2023-01-19T10:07:48.461Z,1.51
2023-01-19T10:13:26.521Z,1.74
2023-01-19T10:19:03.966Z,1.68
2023-01-19T10:21:34.969Z,1.66
2023-01-19T10:24:06.993Z,1.76
2023-01-19T10:26:37.739Z,1.58
2023-01-19T10:32:11.668Z,1.52
2023-01-19T10:34:39.256Z,1.47
2023-01-19T10:37:16.397Z,1.52
2023-01-19T10:39:44.225Z,1.49
2023-01-19T10:45:16.588Z,1.55
2023-01-19T10:50:43.282Z,1.84
2023-01-19T10:53:21.509Z,1.70
2023-01-19T10:55:49.217Z,1.75
2023-01-19T10:58:28.809Z,1.85
2023-01-19T11:03:46.809Z,1.91
2023-01-19T11:06:22.502Z,1.71
2023-01-19T11:08:51.867Z,1.88
2023-01-19T11:11:19.955Z,1.83
2023-01-19T11:16:48.644Z,1.82
2023-01-19T11:19:20.868Z,1.77
2023-01-19T11:21:48.390Z,1.87
2023-01-19T11:24:16.434Z,1.87
2023-01-19T11:29:32.471Z,1.82
2023-01-19T11:35:36.128Z,2.04
2023-01-19T11:38:20.730Z,1.87
2023-01-19T11:40:53.544Z,1.86
2023-01-19T11:43:22.015Z,2.02
2023-01-19T11:46:27.125Z,2.07
2023-01-19T11:49:01.665Z,2.23
2023-01-19T11:54:36.784Z,2.21
2023-01-19T11:57:13.141Z,2.12
2023-01-19T11:59:40.636Z,2.31
2023-01-19T12:02:18.471Z,2.46
2023-01-19T12:07:37.384Z,2.31
2023-01-19T12:13:07.190Z,2.28
2023-01-19T12:15:37.350Z,2.20
2023-01-19T12:18:06.712Z,2.15
2023-01-19T12:20:36.287Z,2.18
2023-01-19T12:26:02.751Z,2.02
2023-01-19T12:28:31.786Z,2.21
2023-01-19T12:31:00.001Z,2.13
2023-01-19T12:33:35.822Z,2.27
2023-01-19T12:38:54.384Z,2.11
2023-01-19T12:41:26.646Z,2.24
2023-01-19T12:44:16.249Z,2.15
2023-01-19T12:46:45.846Z,2.27
2023-01-19T12:52:19.947Z,2.19
2023-01-19T12:57:56.441Z,2.28
2023-01-19T13:00:35.719Z,2.35
2023-01-19T13:03:05.411Z,2.56
2023-01-19T13:05:59.852Z,2.64
2023-01-19T13:08:59.026Z,2.71
2023-01-19T13:11:29.026Z,2.87
2023-01-19T13:17:05.231Z,3.41
2023-01-19T13:19:45.045Z,3.43
2023-01-19T13:22:52.472Z,3.66
2023-01-19T13:25:30.914Z,3.42
2023-01-19T13:27:58.712Z,3.28
2023-01-19T13:30:28.619Z,3.49
2023-01-19T13:35:52.489Z,3.49
2023-01-19T13:38:20.312Z,3.38
2023-01-19T13:41:06.940Z,3.11
2023-01-19T13:43:38.380Z,2.83
2023-01-19T13:48:56.107Z,2.75
2023-01-19T13:51:24.846Z,2.47
2023-01-19T13:53:56.630Z,2.54
2023-01-19T13:56:26.180Z,2.54
2023-01-19T14:01:45.189Z,2.41
2023-01-19T14:07:26.092Z,2.21
2023-01-19T14:10:14.167Z,2.10
2023-01-19T14:12:54.544Z,1.93
2023-01-19T14:15:26.312Z,2.10
2023-01-19T14:20:53.127Z,1.99
2023-01-19T14:26:53.813Z,2.19
2023-01-19T14:29:26.947Z,2.38
2023-01-19T14:32:07.170Z,2.50
2023-01-19T14:34:37.076Z,2.16
2023-01-19T14:39:47.287Z,1.92
2023-01-19T14:45:20.209Z,1.62
2023-01-19T14:47:55.355Z,1.55
2023-01-19T14:50:24.580Z,1.45
2023-01-19T14:52:55.700Z,1.52
2023-01-19T14:58:12.302Z,1.73
2023-01-19T15:00:41.438Z,1.66
2023-01-19T15:03:09.816Z,1.78
2023-01-19T15:05:37.519Z,1.42
2023-01-19T15:11:10.813Z,1.55
2023-01-19T15:13:39.101Z,1.45
2023-01-19T15:16:08.739Z,1.37
2023-01-19T15:18:36.357Z,1.34
2023-01-19T15:24:06.473Z,1.58
2023-01-19T15:26:33.894Z,1.65
2023-01-19T15:29:01.333Z,1.66
2023-01-19T15:31:30.567Z,1.59
2023-01-19T15:36:48.690Z,1.66
2023-01-19T15:39:16.100Z,1.81
2023-01-19T15:41:43.526Z,1.84
2023-01-19T15:44:11.633Z,1.97
2023-01-19T15:49:31.730Z,2.11
2023-01-19T15:54:57.272Z,1.86
2023-01-19T15:57:24.686Z,1.66
2023-01-19T15:59:53.274Z,1.85
2023-01-19T16:02:20.751Z,1.85
2023-01-19T16:07:39.590Z,1.90
2023-01-19T16:10:09.525Z,1.72
2023-01-19T16:12:37.370Z,1.46
2023-01-19T16:15:05.429Z,1.66
2023-01-19T16:20:35.376Z,2.03
2023-01-19T16:23:19.852Z,1.97
2023-01-19T16:25:56.313Z,2.05
2023-01-19T16:28:23.870Z,2.01
2023-01-19T16:33:50.263Z,1.79
2023-01-19T16:39:20.521Z,2.09
2023-01-19T16:41:47.949Z,2.14
2023-01-19T16:44:16.908Z,2.15
2023-01-19T16:46:46.018Z,2.14
2023-01-19T16:52:02.163Z,2.11
2023-01-19T16:54:32.020Z,2.18
2023-01-19T16:56:59.692Z,1.97
2023-01-19T16:59:28.999Z,1.94
2023-01-19T17:05:00.295Z,2.03
2023-01-19T17:07:28.291Z,1.94
2023-01-19T17:12:51.269Z,1.57
2023-01-19T17:18:14.200Z,1.50
2023-01-19T17:20:41.634Z,1.63
2023-01-19T17:23:09.034Z,1.59
2023-01-19T17:25:36.454Z,1.58
2023-01-19T17:28:41.484Z,1.36
2023-01-19T17:31:11.956Z,1.43
2023-01-19T17:36:41.833Z,1.54
2023-01-19T17:39:14.408Z,1.56
2023-01-19T17:41:41.860Z,1.54
2023-01-19T17:44:10.635Z,1.77
2023-01-19T17:49:38.011Z,1.50
2023-01-19T17:52:05.875Z,1.45
2023-01-19T17:54:33.836Z,1.50
2023-01-19T17:57:01.250Z,1.59
2023-01-19T18:02:27.818Z,1.56
2023-01-19T18:04:58.311Z,1.59
2023-01-19T18:07:25.753Z,1.60
2023-01-19T18:09:55.073Z,1.82
2023-01-19T18:15:16.996Z,1.68
2023-01-19T18:20:45.863Z,1.66
2023-01-19T18:23:13.361Z,1.84
2023-01-19T18:25:42.999Z,1.77
2023-01-19T18:28:10.663Z,1.84
2023-01-19T18:33:27.454Z,1.84
2023-01-19T18:35:56.276Z,1.84
2023-01-19T18:38:23.742Z,1.63
2023-01-19T18:41:00.937Z,1.81
2023-01-19T18:46:17.139Z,1.90
2023-01-19T18:48:46.925Z,2.06
2023-01-19T18:51:16.549Z,1.95
2023-01-19T18:53:44.265Z,1.82
2023-01-19T18:59:14.628Z,1.42
2023-01-19T19:01:42.167Z,1.64
2023-01-19T19:04:09.757Z,1.80
2023-01-19T19:06:38.508Z,1.68
2023-01-19T19:11:54.532Z,1.79
2023-01-19T19:14:21.948Z,1.75
2023-01-19T19:16:49.403Z,1.77
2023-01-19T19:19:16.924Z,1.74
2023-01-19T19:24:33.930Z,1.69
2023-01-19T19:27:01.602Z,1.65
2023-01-19T19:29:29.279Z,1.61
2023-01-19T19:31:56.774Z,1.62
2023-01-19T19:37:26.804Z,1.58
2023-01-19T19:39:57.567Z,1.77
2023-01-19T19:42:25.226Z,1.80
2023-01-19T19:44:52.788Z,1.70
2023-01-19T19:50:18.669Z,1.95
2023-01-19T19:52:46.311Z,2.03
2023-01-19T19:55:15.089Z,1.83
2023-01-19T19:57:42.535Z,1.93
2023-01-19T20:03:02.070Z,1.73
2023-01-19T20:05:29.514Z,1.83
2023-01-19T20:07:56.984Z,1.65
2023-01-19T20:10:26.175Z,1.56
2023-01-19T20:16:02.781Z,1.76
2023-01-19T20:21:34.250Z,1.72
2023-01-19T20:24:03.355Z,1.69
2023-01-19T20:26:33.486Z,1.85
2023-01-19T20:29:03.297Z,1.78
2023-01-19T20:34:34.036Z,2.05
2023-01-19T20:37:01.739Z,1.91
2023-01-19T20:39:30.000Z,1.74
2023-01-19T20:41:58.764Z,1.65
2023-01-19T20:47:25.861Z,1.67
2023-01-19T20:52:52.571Z,1.79
2023-01-19T20:55:20.012Z,1.85
2023-01-19T20:57:48.762Z,1.73
2023-01-19T21:00:16.545Z,1.81
2023-01-19T21:05:47.373Z,1.96
2023-01-19T21:08:14.830Z,1.78
2023-01-19T21:10:45.465Z,1.81
2023-01-19T21:13:20.426Z,1.88
2023-01-19T21:18:52.592Z,2.00
2023-01-19T21:21:29.959Z,1.69
2023-01-19T21:23:59.415Z,1.60
2023-01-19T21:26:30.840Z,1.62
2023-01-19T21:32:07.008Z,1.38
2023-01-19T21:37:36.716Z,1.46
2023-01-19T21:40:04.758Z,1.35
2023-01-19T21:42:33.788Z,1.22
2023-01-19T21:45:01.404Z,1.44
2023-01-19T21:50:29.264Z,1.56
2023-01-19T21:52:57.923Z,1.60
2023-01-19T21:55:25.663Z,1.38
2023-01-19T21:57:53.265Z,1.41
2023-01-19T22:03:09.757Z,1.03
2023-01-19T22:05:38.616Z,1.07
2023-01-19T22:08:06.507Z,0.85
2023-01-19T22:10:36.764Z,0.89
2023-01-19T22:16:03.320Z,1.13
2023-01-19T22:18:31.085Z,1.23
2023-01-19T22:21:09.581Z,1.24
2023-01-19T22:23:37.656Z,1.13
2023-01-19T22:29:13.186Z,1.29
2023-01-19T22:34:43.789Z,1.45
2023-01-19T22:37:12.860Z,1.62
2023-01-19T22:39:40.303Z,1.69
2023-01-19T22:42:07.971Z,1.88
2023-01-19T22:47:35.054Z,2.02
2023-01-19T22:50:02.629Z,2.02
2023-01-19T22:52:31.625Z,1.94
2023-01-19T22:55:00.047Z,2.04
2023-01-19T23:00:16.414Z,2.15
2023-01-19T23:02:43.883Z,2.26
2023-01-19T23:05:11.581Z,2.17
2023-01-19T23:07:41.070Z,2.20
2023-01-19T23:13:07.755Z,2.23
2023-01-19T23:15:35.615Z,2.27
2023-01-19T23:18:03.349Z,2.22
2023-01-19T23:20:31.141Z,1.91
2023-01-19T23:25:50.506Z,1.90
2023-01-19T23:28:17.910Z,1.68
2023-01-19T23:30:45.385Z,1.88
2023-01-19T23:33:13.067Z,2.05
2023-01-19T23:38:28.867Z,1.48
2023-01-19T23:40:58.862Z,1.88
2023-01-19T23:43:26.566Z,2.03
2023-01-19T23:45:54.292Z,2.16
2023-01-19T23:51:11.838Z,2.16
2023-01-19T23:53:39.311Z,2.03
2023-01-19T23:56:13.557Z,2.01
2023-01-19T23:58:41.768Z,1.88
